createdAt,value
2024-01-18T00:01:54.331Z,2.33
2024-01-18T00:04:20.861Z,2.36
2024-01-18T00:06:47.507Z,2.50
2024-01-18T00:09:13.983Z,2.38
2024-01-18T00:11:40.411Z,2.26
2024-01-18T00:14:06.818Z,1.81
2024-01-18T00:16:35.037Z,1.99
2024-01-18T00:19:02.129Z,1.63
2024-01-18T00:21:28.826Z,2.14
2024-01-18T00:23:55.289Z,1.74
2024-01-18T00:26:21.676Z,1.64
2024-01-18T00:28:48.072Z,1.64
2024-01-18T00:31:14.720Z,1.70
2024-01-18T00:33:41.144Z,1.69
2024-01-18T00:36:07.633Z,1.67
2024-01-18T00:38:34.106Z,1.76
2024-01-18T00:41:00.490Z,1.78
2024-01-18T00:43:26.869Z,1.68
2024-01-18T00:45:53.224Z,2.11
2024-01-18T00:48:19.714Z,2.11
2024-01-18T00:50:46.168Z,2.19
2024-01-18T00:53:12.641Z,2.16
2024-01-18T00:55:38.970Z,2.10
2024-01-18T00:58:05.351Z,1.98
2024-01-18T01:00:32.058Z,1.92
2024-01-18T01:02:58.833Z,2.01
2024-01-18T01:05:25.278Z,2.02
2024-01-18T01:07:52.158Z,2.12
2024-01-18T01:10:18.559Z,2.14
2024-01-18T01:12:44.930Z,1.38
2024-01-18T01:15:11.419Z,1.11
2024-01-18T01:17:40.647Z,1.55
2024-01-18T01:20:10.667Z,1.65
2024-01-18T01:22:37.234Z,1.62
2024-01-18T01:25:03.744Z,1.66
2024-01-18T01:27:30.179Z,1.66
2024-01-18T01:29:56.638Z,1.27
2024-01-18T01:32:23.111Z,1.54
2024-01-18T01:34:49.574Z,1.87
2024-01-18T01:37:15.987Z,1.40
2024-01-18T01:39:42.346Z,1.47
2024-01-18T01:42:09.824Z,1.72
2024-01-18T01:44:36.200Z,2.03
2024-01-18T01:47:02.622Z,1.88
2024-01-18T01:49:29.224Z,1.77
2024-01-18T01:51:56.408Z,2.04
2024-01-18T01:54:24.685Z,1.85
2024-01-18T01:56:54.278Z,1.70
2024-01-18T01:59:21.874Z,1.73
2024-01-18T02:01:49.243Z,1.68
2024-01-18T02:04:15.887Z,1.76
2024-01-18T02:06:43.745Z,1.48
2024-01-18T02:09:12.307Z,1.51
2024-01-18T02:11:38.820Z,1.76
2024-01-18T02:14:05.203Z,1.80
2024-01-18T02:16:33.439Z,1.30
2024-01-18T02:19:00.207Z,1.70
2024-01-18T02:21:27.359Z,1.75
2024-01-18T02:24:03.222Z,1.92
2024-01-18T02:26:30.664Z,1.40
2024-01-18T02:28:58.390Z,1.77
2024-01-18T02:31:25.345Z,2.07
2024-01-18T02:33:52.608Z,1.95
2024-01-18T02:36:21.199Z,2.24
2024-01-18T02:38:49.333Z,2.08
2024-01-18T02:41:15.900Z,2.11
2024-01-18T02:43:42.709Z,2.23
2024-01-18T02:46:09.082Z,1.86
2024-01-18T02:48:35.659Z,2.02
2024-01-18T02:51:02.302Z,2.27
2024-01-18T02:53:28.666Z,2.01
2024-01-18T02:55:55.399Z,1.90
2024-01-18T02:58:21.765Z,1.99
2024-01-18T03:00:48.702Z,1.88
2024-01-18T03:03:15.525Z,1.58
2024-01-18T03:05:42.059Z,1.71
2024-01-18T03:08:08.596Z,1.94
2024-01-18T03:10:35.035Z,1.58
2024-01-18T03:13:01.396Z,1.65
2024-01-18T03:15:27.804Z,1.88
2024-01-18T03:17:54.279Z,2.16
2024-01-18T03:20:20.686Z,1.90
2024-01-18T03:22:47.076Z,2.08
2024-01-18T03:25:13.628Z,2.10
2024-01-18T03:27:40.486Z,2.05
2024-01-18T03:30:08.767Z,2.01
2024-01-18T03:32:35.218Z,1.81
2024-01-18T03:35:02.171Z,2.04
2024-01-18T03:37:28.535Z,1.82
2024-01-18T03:39:54.902Z,1.90
2024-01-18T03:42:21.322Z,1.99
2024-01-18T03:44:47.726Z,1.74
2024-01-18T03:47:14.094Z,1.89
2024-01-18T03:49:43.119Z,1.86
2024-01-18T03:52:13.484Z,1.89
2024-01-18T03:54:42.860Z,1.91
2024-01-18T03:57:09.334Z,1.99
2024-01-18T03:59:35.719Z,1.94
2024-01-18T04:02:02.160Z,1.94
2024-01-18T04:04:28.614Z,1.53
2024-01-18T04:06:55.036Z,1.63
2024-01-18T04:09:21.550Z,1.68
2024-01-18T04:11:48.046Z,1.89
2024-01-18T04:14:14.400Z,1.80
2024-01-18T04:16:42.079Z,1.73
2024-01-18T04:19:10.053Z,1.82
2024-01-18T04:21:36.868Z,1.60
2024-01-18T04:24:03.500Z,1.62
2024-01-18T04:26:32.218Z,1.65
2024-01-18T04:28:58.992Z,1.58
2024-01-18T04:31:25.381Z,1.43
2024-01-18T04:33:52.016Z,1.41
2024-01-18T04:36:18.520Z,1.36
2024-01-18T04:38:44.888Z,1.51
2024-01-18T04:41:11.268Z,1.63
2024-01-18T04:43:37.693Z,1.58
2024-01-18T04:46:05.353Z,1.68
2024-01-18T04:48:32.508Z,1.82
2024-01-18T04:50:59.576Z,1.68
2024-01-18T04:53:26.109Z,1.84
2024-01-18T04:55:52.595Z,1.64
2024-01-18T04:58:19.076Z,1.42
2024-01-18T05:00:45.751Z,1.41
2024-01-18T05:03:12.310Z,1.36
2024-01-18T05:05:39.117Z,1.26
2024-01-18T05:08:05.740Z,1.45
2024-01-18T05:10:32.188Z,1.15
2024-01-18T05:12:58.535Z,1.23
2024-01-18T05:15:26.313Z,1.14
2024-01-18T05:17:52.848Z,0.91
2024-01-18T05:20:19.295Z,1.32
2024-01-18T05:22:45.801Z,1.38
2024-01-18T05:25:12.267Z,1.34
2024-01-18T05:27:38.976Z,1.33
2024-01-18T05:30:06.318Z,1.54
2024-01-18T05:32:32.934Z,1.36
2024-01-18T05:34:59.436Z,1.42
2024-01-18T05:37:25.868Z,1.58
2024-01-18T05:39:52.872Z,1.52
2024-01-18T05:42:20.045Z,1.56
2024-01-18T05:44:47.505Z,1.64
2024-01-18T05:47:14.384Z,1.63
2024-01-18T05:49:40.969Z,1.73
2024-01-18T05:52:08.158Z,1.69
2024-01-18T05:54:34.772Z,1.82
2024-01-18T05:57:03.039Z,1.95
2024-01-18T05:59:29.682Z,1.72
2024-01-18T06:01:56.402Z,1.34
2024-01-18T06:04:23.192Z,1.56
2024-01-18T06:06:50.934Z,1.33
2024-01-18T06:09:18.095Z,1.20
2024-01-18T06:11:45.341Z,0.83
2024-01-18T06:14:12.444Z,1.23
2024-01-18T06:16:39.434Z,1.48
2024-01-18T06:19:06.396Z,1.73
2024-01-18T06:21:34.550Z,1.81
2024-01-18T06:24:02.557Z,1.78
2024-01-18T06:26:28.981Z,1.64
2024-01-18T06:28:55.337Z,1.41
2024-01-18T06:31:27.358Z,1.13
2024-01-18T06:33:54.657Z,1.55
2024-01-18T06:36:23.411Z,1.49
2024-01-18T06:38:52.496Z,1.43
2024-01-18T06:41:20.843Z,1.43
2024-01-18T06:43:47.539Z,1.36
2024-01-18T06:46:17.129Z,1.41
2024-01-18T06:48:44.177Z,1.36
2024-01-18T06:51:15.496Z,1.51
2024-01-18T06:53:41.975Z,1.55
2024-01-18T06:56:17.914Z,1.41
2024-01-18T06:58:44.950Z,1.37
2024-01-18T07:01:14.584Z,1.44
2024-01-18T07:03:42.514Z,1.12
2024-01-18T07:06:10.406Z,1.09
2024-01-18T07:08:40.243Z,1.24
2024-01-18T07:11:06.979Z,1.52
2024-01-18T07:13:33.610Z,1.55
2024-01-18T07:16:02.556Z,1.80
2024-01-18T07:18:29.803Z,1.43
2024-01-18T07:20:56.751Z,1.43
2024-01-18T07:23:23.145Z,0.85
2024-01-18T07:25:49.684Z,1.48
2024-01-18T07:28:16.186Z,1.29
2024-01-18T07:30:43.218Z,1.82
2024-01-18T07:33:09.862Z,2.32
2024-01-18T07:35:36.364Z,2.15
2024-01-18T07:38:02.751Z,1.85
2024-01-18T07:40:29.154Z,2.13
2024-01-18T07:42:55.664Z,1.72
2024-01-18T07:45:22.259Z,1.76
2024-01-18T07:47:49.323Z,1.68
2024-01-18T07:50:29.005Z,1.62
2024-01-18T07:53:00.883Z,1.70
2024-01-18T07:55:27.567Z,1.64
2024-01-18T07:57:54.089Z,1.55
2024-01-18T08:00:20.644Z,1.79
2024-01-18T08:02:47.153Z,1.72
2024-01-18T08:05:14.187Z,1.74
2024-01-18T08:07:40.857Z,1.87
2024-01-18T08:10:09.874Z,1.27
2024-01-18T08:12:37.531Z,1.27
2024-01-18T08:15:10.025Z,1.35
2024-01-18T08:17:36.510Z,1.35
2024-01-18T08:20:05.301Z,1.13
2024-01-18T08:22:31.720Z,0.90
2024-01-18T08:24:58.184Z,1.24
2024-01-18T08:27:25.118Z,1.33
2024-01-18T08:29:51.717Z,1.67
2024-01-18T08:32:18.074Z,1.73
2024-01-18T08:34:45.872Z,1.18
2024-01-18T08:37:13.190Z,1.69
2024-01-18T08:39:40.035Z,1.30
2024-01-18T08:42:06.978Z,1.01
2024-01-18T08:44:33.417Z,1.43
2024-01-18T08:47:00.408Z,1.43
2024-01-18T08:49:27.023Z,1.62
2024-01-18T08:51:54.159Z,1.61
2024-01-18T08:54:22.096Z,2.03
2024-01-18T08:56:49.291Z,1.22
2024-01-18T08:59:16.129Z,1.06
2024-01-18T09:01:43.229Z,1.03
2024-01-18T09:04:09.724Z,1.35
2024-01-18T09:06:37.913Z,1.60
2024-01-18T09:09:04.366Z,1.45
2024-01-18T09:11:31.490Z,1.36
2024-01-18T09:13:57.897Z,1.63
2024-01-18T09:16:24.260Z,1.30
2024-01-18T09:19:01.283Z,1.55
2024-01-18T09:21:45.079Z,1.30
2024-01-18T09:24:12.189Z,1.70
2024-01-18T09:26:38.695Z,1.34
2024-01-18T09:29:05.087Z,1.01
2024-01-18T09:31:38.655Z,1.41
2024-01-18T09:34:09.065Z,1.43
2024-01-18T09:36:35.513Z,0.78
2024-01-18T09:39:01.991Z,1.00
2024-01-18T09:41:30.420Z,1.56
2024-01-18T09:44:04.244Z,1.97
2024-01-18T09:46:30.870Z,2.10
2024-01-18T09:49:02.030Z,2.30
2024-01-18T09:51:30.693Z,1.78
2024-01-18T09:53:57.456Z,1.79
2024-01-18T09:56:26.835Z,1.59
2024-01-18T09:58:53.707Z,1.87
2024-01-18T10:01:25.051Z,1.82
2024-01-18T10:03:51.745Z,1.84
2024-01-18T10:06:19.401Z,2.01
2024-01-18T10:08:47.201Z,1.42
2024-01-18T10:11:13.633Z,1.83
2024-01-18T10:13:49.115Z,2.07
2024-01-18T10:16:29.399Z,1.19
2024-01-18T10:19:01.548Z,1.19
2024-01-18T10:21:28.400Z,1.29
2024-01-18T10:23:55.535Z,1.39
2024-01-18T10:26:23.122Z,1.75
2024-01-18T10:28:50.085Z,1.67
2024-01-18T10:31:16.713Z,1.80
2024-01-18T10:33:43.260Z,1.35
2024-01-18T10:36:09.776Z,1.51
2024-01-18T10:38:38.494Z,1.98
2024-01-18T10:41:06.108Z,2.22
2024-01-18T10:43:36.757Z,2.05
2024-01-18T10:46:05.157Z,2.31
2024-01-18T10:48:32.687Z,2.50
2024-01-18T10:51:00.110Z,3.23
2024-01-18T10:53:37.747Z,3.47
2024-01-18T10:56:04.525Z,3.63
2024-01-18T10:58:31.890Z,3.35
2024-01-18T11:00:58.863Z,4.73
2024-01-18T11:03:25.750Z,7.06
2024-01-18T11:05:52.952Z,10.36
2024-01-18T11:08:19.398Z,13.71
2024-01-18T11:10:49.224Z,13.58
2024-01-18T11:13:16.576Z,13.03
2024-01-18T11:15:45.397Z,13.90
2024-01-18T11:18:13.727Z,13.16
2024-01-18T11:20:58.778Z,12.79
2024-01-18T11:23:40.464Z,10.88
2024-01-18T11:26:09.266Z,10.42
2024-01-18T11:28:36.486Z,14.06
2024-01-18T11:31:03.288Z,12.95
2024-01-18T11:33:32.486Z,13.62
2024-01-18T11:36:00.111Z,12.85
2024-01-18T11:38:33.745Z,11.94
2024-01-18T11:41:11.518Z,11.89
2024-01-18T11:43:59.023Z,11.37
2024-01-18T11:46:42.691Z,10.99
2024-01-18T11:49:10.168Z,11.62
2024-01-18T11:51:37.670Z,10.91
2024-01-18T11:54:05.387Z,9.63
2024-01-18T11:56:39.143Z,9.15
2024-01-18T11:59:06.301Z,9.35
2024-01-18T12:01:33.135Z,7.60
2024-01-18T12:03:59.822Z,9.12
2024-01-18T12:06:29.584Z,8.62
2024-01-18T12:08:57.654Z,9.38
2024-01-18T12:11:24.119Z,8.74
2024-01-18T12:13:51.831Z,8.53
2024-01-18T12:16:21.224Z,8.72
2024-01-18T12:18:47.627Z,8.59
2024-01-18T12:21:18.055Z,9.09
2024-01-18T12:23:44.560Z,8.47
2024-01-18T12:26:11.431Z,8.52
2024-01-18T12:28:38.132Z,8.79
2024-01-18T12:31:05.527Z,7.48
2024-01-18T12:33:33.008Z,7.19
2024-01-18T12:36:02.247Z,7.09
2024-01-18T12:38:29.588Z,6.98
2024-01-18T12:40:56.025Z,6.57
2024-01-18T12:43:22.387Z,7.52
2024-01-18T12:45:52.762Z,6.41
2024-01-18T12:48:20.617Z,6.40
2024-01-18T12:50:47.588Z,7.36
2024-01-18T12:53:14.407Z,5.92
2024-01-18T12:55:41.717Z,6.66
2024-01-18T12:58:13.634Z,7.38
2024-01-18T13:00:40.462Z,10.48
2024-01-18T13:03:12.018Z,10.99
2024-01-18T13:05:48.777Z,11.24
2024-01-18T13:08:17.070Z,11.61
2024-01-18T13:10:45.967Z,11.05
2024-01-18T13:13:12.441Z,10.31
2024-01-18T13:15:39.734Z,9.45
2024-01-18T13:18:12.802Z,8.47
2024-01-18T13:20:42.540Z,8.54
2024-01-18T13:23:11.206Z,8.00
2024-01-18T13:25:37.871Z,8.36
2024-01-18T13:28:05.434Z,8.79
2024-01-18T13:30:31.943Z,7.65
2024-01-18T13:32:59.590Z,6.65
2024-01-18T13:35:27.174Z,8.10
2024-01-18T13:37:53.547Z,7.90
2024-01-18T13:40:19.978Z,6.79
2024-01-18T13:42:46.379Z,6.95
2024-01-18T13:45:12.876Z,7.25
2024-01-18T13:47:39.773Z,6.26
2024-01-18T13:50:06.648Z,6.93
2024-01-18T13:52:33.163Z,6.37
2024-01-18T13:54:59.630Z,5.34
2024-01-18T13:57:26.550Z,6.08
2024-01-18T13:59:52.990Z,6.62
2024-01-18T14:02:20.110Z,6.96
2024-01-18T14:04:46.940Z,6.94
2024-01-18T14:07:13.632Z,6.37
2024-01-18T14:09:41.509Z,6.04
2024-01-18T14:12:08.082Z,5.73
2024-01-18T14:14:34.510Z,5.04
2024-01-18T14:17:00.904Z,5.37
2024-01-18T14:19:27.414Z,5.37
2024-01-18T14:21:53.994Z,6.35
2024-01-18T14:24:20.383Z,6.16
2024-01-18T14:26:47.398Z,5.54
2024-01-18T14:29:14.051Z,4.50
2024-01-18T14:31:42.886Z,5.31
2024-01-18T14:34:09.377Z,5.48
2024-01-18T14:36:35.896Z,4.27
2024-01-18T14:39:04.724Z,4.78
2024-01-18T14:41:31.393Z,4.80
2024-01-18T14:43:57.799Z,4.42
2024-01-18T14:46:24.275Z,4.98
2024-01-18T14:48:50.774Z,5.02
2024-01-18T14:51:18.295Z,4.34
2024-01-18T14:53:45.707Z,4.82
2024-01-18T14:56:12.052Z,4.78
2024-01-18T14:58:38.418Z,4.59
2024-01-18T15:01:05.022Z,4.59
2024-01-18T15:03:31.865Z,4.70
2024-01-18T15:05:58.346Z,4.58
2024-01-18T15:08:25.019Z,4.49
2024-01-18T15:10:51.379Z,4.97
2024-01-18T15:13:19.500Z,4.26
2024-01-18T15:15:46.633Z,3.64
2024-01-18T15:18:13.080Z,3.98
2024-01-18T15:20:39.658Z,4.01
2024-01-18T15:23:07.641Z,4.05
2024-01-18T15:25:34.299Z,4.32
2024-01-18T15:28:00.779Z,3.76
2024-01-18T15:30:27.289Z,3.46
2024-01-18T15:32:53.796Z,3.50
2024-01-18T15:35:20.380Z,3.58
2024-01-18T15:37:47.578Z,2.80
2024-01-18T15:40:14.054Z,2.80
2024-01-18T15:42:40.534Z,3.34
2024-01-18T15:45:09.453Z,3.04
2024-01-18T15:47:42.201Z,3.25
2024-01-18T15:50:09.352Z,3.40
2024-01-18T15:52:36.628Z,3.46
2024-01-18T15:55:03.854Z,3.16
2024-01-18T15:57:30.466Z,3.12
2024-01-18T15:59:57.501Z,3.38
2024-01-18T16:02:24.897Z,3.19
2024-01-18T16:04:51.569Z,3.28
2024-01-18T16:07:18.009Z,3.33
2024-01-18T16:09:44.609Z,3.49
2024-01-18T16:12:11.372Z,3.23
2024-01-18T16:14:44.017Z,3.11
2024-01-18T16:17:10.870Z,2.78
2024-01-18T16:19:37.322Z,2.99
2024-01-18T16:22:03.841Z,2.69
2024-01-18T16:24:31.082Z,3.10
2024-01-18T16:26:57.711Z,3.09
2024-01-18T16:29:28.863Z,3.00
2024-01-18T16:31:57.000Z,3.21
2024-01-18T16:34:23.482Z,3.22
2024-01-18T16:36:49.984Z,2.98
2024-01-18T16:39:16.420Z,3.18
2024-01-18T16:41:43.521Z,3.11
2024-01-18T16:44:09.968Z,2.76
2024-01-18T16:46:36.470Z,2.65
2024-01-18T16:49:06.036Z,2.68
2024-01-18T16:51:32.916Z,2.87
2024-01-18T16:53:59.371Z,3.00
2024-01-18T16:56:25.826Z,2.70
2024-01-18T16:58:52.249Z,2.91
2024-01-18T17:01:19.457Z,2.86
2024-01-18T17:03:45.919Z,2.42
2024-01-18T17:06:14.684Z,2.85
2024-01-18T17:08:41.158Z,2.92
2024-01-18T17:11:16.722Z,2.82
2024-01-18T17:13:46.899Z,2.35
2024-01-18T17:16:13.277Z,2.26
2024-01-18T17:18:39.645Z,2.78
2024-01-18T17:21:06.150Z,2.80
2024-01-18T17:23:32.519Z,2.44
2024-01-18T17:25:58.906Z,2.69
2024-01-18T17:28:25.261Z,2.93
2024-01-18T17:30:52.503Z,3.57
2024-01-18T17:33:19.237Z,3.57
2024-01-18T17:35:45.708Z,3.31
2024-01-18T17:38:12.164Z,3.33
2024-01-18T17:40:38.525Z,2.98
2024-01-18T17:43:05.057Z,2.48
2024-01-18T17:45:32.828Z,2.92
2024-01-18T17:47:59.335Z,2.85
2024-01-18T17:50:25.899Z,3.01
2024-01-18T17:52:52.404Z,2.56
2024-01-18T17:55:18.776Z,2.24
2024-01-18T17:57:45.134Z,1.99
2024-01-18T18:00:11.895Z,2.59
2024-01-18T18:02:38.986Z,2.36
2024-01-18T18:05:06.000Z,2.53
2024-01-18T18:07:32.416Z,2.63
2024-01-18T18:09:58.892Z,2.65
2024-01-18T18:12:25.587Z,2.95
2024-01-18T18:14:52.077Z,3.02
2024-01-18T18:17:18.684Z,3.27
2024-01-18T18:19:45.189Z,3.34
2024-01-18T18:22:11.622Z,3.46
2024-01-18T18:24:38.053Z,3.30
2024-01-18T18:27:04.613Z,3.41
2024-01-18T18:29:31.246Z,3.34
2024-01-18T18:31:57.674Z,2.90
2024-01-18T18:34:29.310Z,3.06
2024-01-18T18:36:56.339Z,3.01
2024-01-18T18:39:22.817Z,2.75
2024-01-18T18:41:49.340Z,2.73
2024-01-18T18:44:15.787Z,2.93
2024-01-18T18:46:42.238Z,2.87
2024-01-18T18:49:08.592Z,3.04
2024-01-18T18:51:35.190Z,2.72
2024-01-18T18:54:01.582Z,2.83
2024-01-18T18:56:27.992Z,2.74
2024-01-18T18:58:54.356Z,2.44
2024-01-18T19:01:20.803Z,2.88
2024-01-18T19:03:48.280Z,2.90
2024-01-18T19:06:15.015Z,3.21
2024-01-18T19:08:41.512Z,3.31
2024-01-18T19:11:08.022Z,3.29
2024-01-18T19:13:35.147Z,3.26
2024-01-18T19:16:01.639Z,3.26
2024-01-18T19:18:28.157Z,3.26
2024-01-18T19:20:54.721Z,2.95
2024-01-18T19:23:21.215Z,3.23
2024-01-18T19:25:48.287Z,2.94
2024-01-18T19:28:14.676Z,3.06
2024-01-18T19:30:41.028Z,3.17
2024-01-18T19:33:07.588Z,2.97
2024-01-18T19:35:34.169Z,2.69
2024-01-18T19:38:04.530Z,2.66
2024-01-18T19:40:31.807Z,2.47
2024-01-18T19:42:58.262Z,2.34
2024-01-18T19:45:26.083Z,2.41
2024-01-18T19:47:52.492Z,2.37
2024-01-18T19:50:18.913Z,2.48
2024-01-18T19:52:45.295Z,2.24
2024-01-18T19:55:11.668Z,2.57
2024-01-18T19:57:40.971Z,2.49
2024-01-18T20:00:10.242Z,2.33
2024-01-18T20:02:37.247Z,2.59
2024-01-18T20:05:04.037Z,2.34
2024-01-18T20:07:34.587Z,2.52
2024-01-18T20:10:01.723Z,2.87
2024-01-18T20:12:31.003Z,3.01
2024-01-18T20:14:57.543Z,2.67
2024-01-18T20:17:24.377Z,2.13
2024-01-18T20:19:50.871Z,2.36
2024-01-18T20:22:18.163Z,2.46
2024-01-18T20:24:47.686Z,2.58
2024-01-18T20:27:15.722Z,2.69
2024-01-18T20:29:43.532Z,2.40
2024-01-18T20:32:10.597Z,2.19
2024-01-18T20:34:41.365Z,2.27
2024-01-18T20:37:08.636Z,2.29
2024-01-18T20:39:36.031Z,2.50
2024-01-18T20:42:04.177Z,2.70
2024-01-18T20:44:32.186Z,2.64
2024-01-18T20:46:58.880Z,2.26
2024-01-18T20:49:25.470Z,2.27
2024-01-18T20:51:51.958Z,2.60
2024-01-18T20:54:18.400Z,2.84
2024-01-18T20:56:45.849Z,2.86
2024-01-18T20:59:12.334Z,2.88
2024-01-18T21:01:38.745Z,2.65
2024-01-18T21:04:05.138Z,2.47
2024-01-18T21:06:31.625Z,2.76
2024-01-18T21:08:58.411Z,2.70
2024-01-18T21:11:24.932Z,2.66
2024-01-18T21:13:51.387Z,2.63
2024-01-18T21:16:17.751Z,2.58
2024-01-18T21:18:44.304Z,2.54
2024-01-18T21:23:37.610Z,2.44
2024-01-18T21:26:03.998Z,2.43
2024-01-18T21:28:30.374Z,2.30
2024-01-18T21:30:57.044Z,2.12
2024-01-18T21:33:23.490Z,2.28
2024-01-18T21:35:49.955Z,2.01
2024-01-18T21:38:19.249Z,2.44
2024-01-18T21:40:46.175Z,2.58
2024-01-18T21:43:12.911Z,2.18
2024-01-18T21:45:39.334Z,2.57
2024-01-18T21:48:06.497Z,2.56
2024-01-18T21:50:33.382Z,2.56
2024-01-18T21:52:59.981Z,2.55
2024-01-18T21:55:26.594Z,2.23
2024-01-18T21:57:53.284Z,2.10
2024-01-18T22:00:19.814Z,2.22
2024-01-18T22:02:48.126Z,2.54
2024-01-18T22:05:14.695Z,2.36
2024-01-18T22:07:41.925Z,2.71
2024-01-18T22:10:08.656Z,2.90
2024-01-18T22:12:35.344Z,2.96
2024-01-18T22:15:01.706Z,3.04
2024-01-18T22:17:28.176Z,3.06
2024-01-18T22:20:01.464Z,2.97
2024-01-18T22:22:31.679Z,2.94
2024-01-18T22:24:59.091Z,2.80
2024-01-18T22:27:27.629Z,2.79
2024-01-18T22:29:54.501Z,2.76
2024-01-18T22:32:20.934Z,2.17
2024-01-18T22:34:48.709Z,2.37
2024-01-18T22:37:16.341Z,2.03
2024-01-18T22:39:42.749Z,2.27
2024-01-18T22:42:09.117Z,1.91
2024-01-18T22:44:35.542Z,1.94
2024-01-18T22:47:01.955Z,2.02
2024-01-18T22:49:28.439Z,2.26
2024-01-18T22:51:54.889Z,2.43
2024-01-18T22:54:21.564Z,2.14
2024-01-18T22:56:47.972Z,2.19
2024-01-18T22:59:14.411Z,2.32
2024-01-18T23:01:40.800Z,2.33
2024-01-18T23:04:07.232Z,2.43
2024-01-18T23:06:33.806Z,2.36
2024-01-18T23:09:00.815Z,2.52
2024-01-18T23:11:27.337Z,2.65
2024-01-18T23:13:54.142Z,2.71
2024-01-18T23:16:21.207Z,2.75
2024-01-18T23:18:48.028Z,2.60
2024-01-18T23:21:14.435Z,2.53
2024-01-18T23:23:40.774Z,2.77
2024-01-18T23:26:07.346Z,2.69
2024-01-18T23:28:33.888Z,2.83
2024-01-18T23:31:00.396Z,2.89
2024-01-18T23:33:26.815Z,2.81
2024-01-18T23:35:53.232Z,2.67
2024-01-18T23:38:19.606Z,2.69
2024-01-18T23:40:46.004Z,2.34
2024-01-18T23:43:12.369Z,2.55
2024-01-18T23:45:38.762Z,2.76
2024-01-18T23:48:05.582Z,2.54
2024-01-18T23:50:32.155Z,2.68
2024-01-18T23:52:58.593Z,2.82
2024-01-18T23:55:24.953Z,2.75
2024-01-18T23:57:51.319Z,2.79
